Terminal Aerodrome Forecast
Issued by NWS

Current Version | Previous Version | Text Only | Print | Product List | Glossary On
Versions: 1 2 3 4 5 6 7 8 9 10 11 12 13 14 15 16 17 18 19 20 21 22 23 24 25 26 27 28 29 30 31 32 33
000
FTUS41 KBOX 271505 AAA
TAFBED
TAF AMD
KBED 271505Z 2715/2812 00000KT 3SM BR OVC006
     FM271900 00000KT P6SM BKN010
     FM272300 13004KT P6SM BKN003
     FM280200 15004KT 3SM BR OVC003
     FM281100 18005KT 3SM BR VCSH OVC010=

USA.gov is the U.S. government's official web portal to all federal, state and local government web resources and services.